sensor_id;sensor_type;location;lat;lon;timestamp;P1;durP1;ratioP1;P2;durP2;ratioP2
79664;SDS011;69132;44.014;20.918;2023-12-20T05:34:14;53.45;;;32.60;;
79664;SDS011;69132;44.014;20.918;2023-12-20T05:36:40;49.65;;;29.83;;
79664;SDS011;69132;44.014;20.918;2023-12-20T05:39:07;51.97;;;29.58;;
79664;SDS011;69132;44.014;20.918;2023-12-20T05:41:33;49.70;;;29.88;;
79664;SDS011;69132;44.014;20.918;2023-12-20T05:44:00;45.08;;;28.13;;
79664;SDS011;69132;44.014;20.918;2023-12-20T05:46:28;46.75;;;28.65;;
79664;SDS011;69132;44.014;20.918;2023-12-20T05:48:55;47.83;;;28.33;;
79664;SDS011;69132;44.014;20.918;2023-12-20T05:51:21;42.90;;;28.85;;
79664;SDS011;69132;44.014;20.918;2023-12-20T05:53:47;51.63;;;29.63;;
79664;SDS011;69132;44.014;20.918;2023-12-20T05:56:15;48.75;;;31.25;;
79664;SDS011;69132;44.014;20.918;2023-12-20T05:58:41;49.53;;;31.33;;
79664;SDS011;69132;44.014;20.918;2023-12-20T06:01:07;53.75;;;30.85;;
79664;SDS011;69132;44.014;20.918;2023-12-20T06:03:33;50.60;;;29.42;;
79664;SDS011;69132;44.014;20.918;2023-12-20T06:06:04;51.72;;;31.23;;
79664;SDS011;69132;44.014;20.918;2023-12-20T06:08:31;50.83;;;31.02;;
79664;SDS011;69132;44.014;20.918;2023-12-20T06:10:57;48.58;;;30.00;;
79664;SDS011;69132;44.014;20.918;2023-12-20T06:13:23;49.78;;;28.38;;
79664;SDS011;69132;44.014;20.918;2023-12-20T06:15:49;48.70;;;29.50;;
79664;SDS011;69132;44.014;20.918;2023-12-20T06:18:15;51.03;;;32.10;;
79664;SDS011;69132;44.014;20.918;2023-12-20T06:20:42;56.72;;;33.00;;
79664;SDS011;69132;44.014;20.918;2023-12-20T06:23:08;57.65;;;35.15;;
79664;SDS011;69132;44.014;20.918;2023-12-20T06:25:34;60.83;;;36.20;;
79664;SDS011;69132;44.014;20.918;2023-12-20T06:28:01;59.83;;;35.15;;
79664;SDS011;69132;44.014;20.918;2023-12-20T06:30:29;66.20;;;35.60;;
79664;SDS011;69132;44.014;20.918;2023-12-20T06:32:58;67.63;;;38.65;;
79664;SDS011;69132;44.014;20.918;2023-12-20T06:35:25;69.53;;;40.13;;
79664;SDS011;69132;44.014;20.918;2023-12-20T06:37:51;118.85;;;66.22;;
79664;SDS011;69132;44.014;20.918;2023-12-20T06:40:17;200.43;;;102.07;;
79664;SDS011;69132;44.014;20.918;2023-12-20T06:42:43;72.30;;;40.17;;
79664;SDS011;69132;44.014;20.918;2023-12-20T06:45:10;63.17;;;37.53;;
79664;SDS011;69132;44.014;20.918;2023-12-20T06:47:37;67.70;;;39.42;;
79664;SDS011;69132;44.014;20.918;2023-12-20T06:50:05;67.40;;;36.47;;
79664;SDS011;69132;44.014;20.918;2023-12-20T06:52:33;64.60;;;36.80;;
79664;SDS011;69132;44.014;20.918;2023-12-20T06:55:00;77.65;;;38.15;;
79664;SDS011;69132;44.014;20.918;2023-12-20T06:57:29;69.93;;;36.60;;
79664;SDS011;69132;44.014;20.918;2023-12-20T06:59:55;59.83;;;35.25;;
79664;SDS011;69132;44.014;20.918;2023-12-20T07:02:22;60.95;;;36.13;;
79664;SDS011;69132;44.014;20.918;2023-12-20T07:04:49;77.88;;;41.65;;
79664;SDS011;69132;44.014;20.918;2023-12-20T07:07:17;84.65;;;46.13;;
79664;SDS011;69132;44.014;20.918;2023-12-20T07:09:43;72.60;;;39.13;;
79664;SDS011;69132;44.014;20.918;2023-12-20T07:12:09;66.63;;;38.33;;
79664;SDS011;69132;44.014;20.918;2023-12-20T07:14:36;66.97;;;37.75;;
79664;SDS011;69132;44.014;20.918;2023-12-20T07:17:02;63.90;;;36.80;;
79664;SDS011;69132;44.014;20.918;2023-12-20T07:19:28;66.85;;;37.03;;
79664;SDS011;69132;44.014;20.918;2023-12-20T07:21:54;71.10;;;41.97;;
79664;SDS011;69132;44.014;20.918;2023-12-20T07:27:14;62.65;;;36.20;;
79664;SDS011;69132;44.014;20.918;2023-12-20T07:32:07;68.50;;;37.38;;
79664;SDS011;69132;44.014;20.918;2023-12-20T07:34:34;65.88;;;39.60;;
79664;SDS011;69132;44.014;20.918;2023-12-20T07:37:02;70.78;;;40.50;;
79664;SDS011;69132;44.014;20.918;2023-12-20T07:39:28;69.93;;;41.65;;
79664;SDS011;69132;44.014;20.918;2023-12-20T07:41:57;63.83;;;37.60;;
79664;SDS011;69132;44.014;20.918;2023-12-20T07:46:52;73.28;;;40.80;;
79664;SDS011;69132;44.014;20.918;2023-12-20T07:49:19;71.15;;;41.17;;
79664;SDS011;69132;44.014;20.918;2023-12-20T07:51:46;77.88;;;44.63;;
79664;SDS011;69132;44.014;20.918;2023-12-20T07:54:12;75.80;;;46.92;;
79664;SDS011;69132;44.014;20.918;2023-12-20T07:56:41;85.13;;;48.53;;
79664;SDS011;69132;44.014;20.918;2023-12-20T07:59:07;87.68;;;49.65;;
79664;SDS011;69132;44.014;20.918;2023-12-20T08:01:35;84.85;;;49.97;;
79664;SDS011;69132;44.014;20.918;2023-12-20T08:04:01;90.28;;;51.35;;
79664;SDS011;69132;44.014;20.918;2023-12-20T08:06:28;84.15;;;48.80;;
79664;SDS011;69132;44.014;20.918;2023-12-20T08:08:54;86.40;;;50.10;;
79664;SDS011;69132;44.014;20.918;2023-12-20T08:11:20;89.63;;;50.03;;
79664;SDS011;69132;44.014;20.918;2023-12-20T08:13:46;82.72;;;49.50;;
79664;SDS011;69132;44.014;20.918;2023-12-20T08:16:12;89.68;;;53.58;;
79664;SDS011;69132;44.014;20.918;2023-12-20T08:18:40;97.57;;;54.67;;
79664;SDS011;69132;44.014;20.918;2023-12-20T08:21:07;94.80;;;54.05;;
79664;SDS011;69132;44.014;20.918;2023-12-20T08:23:33;100.03;;;56.25;;
79664;SDS011;69132;44.014;20.918;2023-12-20T08:26:03;99.50;;;55.72;;
79664;SDS011;69132;44.014;20.918;2023-12-20T08:28:29;96.60;;;54.30;;
79664;SDS011;69132;44.014;20.918;2023-12-20T08:30:57;91.22;;;53.58;;
79664;SDS011;69132;44.014;20.918;2023-12-20T08:33:23;87.97;;;53.95;;
79664;SDS011;69132;44.014;20.918;2023-12-20T08:35:50;88.75;;;51.83;;
79664;SDS011;69132;44.014;20.918;2023-12-20T08:38:16;84.70;;;51.80;;
79664;SDS011;69132;44.014;20.918;2023-12-20T08:40:44;95.07;;;58.83;;
79664;SDS011;69132;44.014;20.918;2023-12-20T08:43:10;80.82;;;52.17;;
79664;SDS011;69132;44.014;20.918;2023-12-20T08:45:39;75.70;;;47.75;;
79664;SDS011;69132;44.014;20.918;2023-12-20T08:48:05;78.97;;;48.90;;
79664;SDS011;69132;44.014;20.918;2023-12-20T08:50:32;80.25;;;49.25;;
79664;SDS011;69132;44.014;20.918;2023-12-20T08:52:58;56.35;;;38.13;;
79664;SDS011;69132;44.014;20.918;2023-12-20T08:55:24;53.17;;;35.25;;
79664;SDS011;69132;44.014;20.918;2023-12-20T08:57:51;51.33;;;33.10;;
79664;SDS011;69132;44.014;20.918;2023-12-20T09:00:18;56.72;;;34.78;;
79664;SDS011;69132;44.014;20.918;2023-12-20T09:02:49;51.95;;;35.53;;
79664;SDS011;69132;44.014;20.918;2023-12-20T09:05:30;53.53;;;33.35;;
79664;SDS011;69132;44.014;20.918;2023-12-20T09:08:00;55.58;;;32.00;;
79664;SDS011;69132;44.014;20.918;2023-12-20T09:10:28;49.45;;;29.48;;
79664;SDS011;69132;44.014;20.918;2023-12-20T09:12:54;41.42;;;29.33;;
79664;SDS011;69132;44.014;20.918;2023-12-20T09:17:50;50.95;;;32.63;;
79664;SDS011;69132;44.014;20.918;2023-12-20T09:20:32;51.03;;;30.80;;
79664;SDS011;69132;44.014;20.918;2023-12-20T09:23:02;50.22;;;31.83;;
79664;SDS011;69132;44.014;20.918;2023-12-20T09:25:28;47.47;;;29.75;;
79664;SDS011;69132;44.014;20.918;2023-12-20T09:27:55;49.55;;;32.13;;
79664;SDS011;69132;44.014;20.918;2023-12-20T09:30:26;54.03;;;35.35;;
79664;SDS011;69132;44.014;20.918;2023-12-20T09:32:54;55.97;;;34.20;;
79664;SDS011;69132;44.014;20.918;2023-12-20T09:35:21;60.03;;;36.88;;
79664;SDS011;69132;44.014;20.918;2023-12-20T09:37:51;56.53;;;37.00;;
79664;SDS011;69132;44.014;20.918;2023-12-20T09:40:20;55.45;;;37.20;;
79664;SDS011;69132;44.014;20.918;2023-12-20T09:45:46;56.58;;;35.50;;
79664;SDS011;69132;44.014;20.918;2023-12-20T09:48:13;56.78;;;36.40;;
79664;SDS011;69132;44.014;20.918;2023-12-20T09:50:43;57.28;;;36.38;;
79664;SDS011;69132;44.014;20.918;2023-12-20T09:53:10;62.03;;;37.80;;
79664;SDS011;69132;44.014;20.918;2023-12-20T09:55:37;62.90;;;40.28;;
79664;SDS011;69132;44.014;20.918;2023-12-20T09:58:03;66.00;;;40.75;;
79664;SDS011;69132;44.014;20.918;2023-12-20T10:00:30;54.45;;;37.83;;
79664;SDS011;69132;44.014;20.918;2023-12-20T10:02:57;83.22;;;52.08;;
79664;SDS011;69132;44.014;20.918;2023-12-20T10:05:30;61.58;;;42.13;;
79664;SDS011;69132;44.014;20.918;2023-12-20T10:07:57;55.10;;;39.78;;
79664;SDS011;69132;44.014;20.918;2023-12-20T10:10:25;61.80;;;39.70;;
79664;SDS011;69132;44.014;20.918;2023-12-20T10:13:06;54.35;;;39.42;;
79664;SDS011;69132;44.014;20.918;2023-12-20T10:15:33;53.95;;;40.22;;
79664;SDS011;69132;44.014;20.918;2023-12-20T10:17:59;59.33;;;40.80;;
79664;SDS011;69132;44.014;20.918;2023-12-20T10:20:25;56.05;;;38.08;;
79664;SDS011;69132;44.014;20.918;2023-12-20T10:23:00;59.05;;;41.67;;
79664;SDS011;69132;44.014;20.918;2023-12-20T10:25:29;62.33;;;40.90;;
79664;SDS011;69132;44.014;20.918;2023-12-20T10:28:17;57.53;;;39.97;;
79664;SDS011;69132;44.014;20.918;2023-12-20T10:30:44;60.97;;;40.08;;
79664;SDS011;69132;44.014;20.918;2023-12-20T10:33:12;59.00;;;39.63;;
79664;SDS011;69132;44.014;20.918;2023-12-20T10:35:39;62.72;;;43.47;;
79664;SDS011;69132;44.014;20.918;2023-12-20T10:38:06;60.20;;;41.72;;
79664;SDS011;69132;44.014;20.918;2023-12-20T10:40:36;67.95;;;46.10;;
79664;SDS011;69132;44.014;20.918;2023-12-20T10:43:02;69.15;;;43.15;;
79664;SDS011;69132;44.014;20.918;2023-12-20T10:45:28;54.42;;;43.78;;
79664;SDS011;69132;44.014;20.918;2023-12-20T10:47:54;61.22;;;44.15;;
79664;SDS011;69132;44.014;20.918;2023-12-20T10:50:21;61.33;;;40.85;;
79664;SDS011;69132;44.014;20.918;2023-12-20T10:52:48;62.50;;;39.13;;
79664;SDS011;69132;44.014;20.918;2023-12-20T10:55:20;55.55;;;40.55;;
79664;SDS011;69132;44.014;20.918;2023-12-20T10:57:47;56.47;;;39.50;;
79664;SDS011;69132;44.014;20.918;2023-12-20T11:00:16;58.78;;;39.33;;
79664;SDS011;69132;44.014;20.918;2023-12-20T11:02:43;50.95;;;35.97;;
79664;SDS011;69132;44.014;20.918;2023-12-20T11:07:53;53.28;;;39.67;;
79664;SDS011;69132;44.014;20.918;2023-12-20T11:11:10;57.97;;;37.40;;
79664;SDS011;69132;44.014;20.918;2023-12-20T11:13:27;56.42;;;37.85;;
79664;SDS011;69132;44.014;20.918;2023-12-20T11:15:55;56.00;;;39.83;;
79664;SDS011;69132;44.014;20.918;2023-12-20T11:18:28;55.10;;;39.53;;
79664;SDS011;69132;44.014;20.918;2023-12-20T11:20:55;58.22;;;38.65;;
79664;SDS011;69132;44.014;20.918;2023-12-20T11:23:21;61.10;;;42.95;;
79664;SDS011;69132;44.014;20.918;2023-12-20T11:25:54;57.13;;;39.13;;
79664;SDS011;69132;44.014;20.918;2023-12-20T11:28:24;55.30;;;40.35;;
79664;SDS011;69132;44.014;20.918;2023-12-20T11:30:52;59.83;;;35.87;;
79664;SDS011;69132;44.014;20.918;2023-12-20T11:33:22;52.00;;;38.10;;
79664;SDS011;69132;44.014;20.918;2023-12-20T11:35:49;52.50;;;40.17;;
79664;SDS011;69132;44.014;20.918;2023-12-20T11:38:15;48.90;;;37.25;;
79664;SDS011;69132;44.014;20.918;2023-12-20T11:40:42;53.25;;;38.42;;
79664;SDS011;69132;44.014;20.918;2023-12-20T11:43:09;55.13;;;39.25;;
79664;SDS011;69132;44.014;20.918;2023-12-20T11:45:35;44.42;;;35.58;;
79664;SDS011;69132;44.014;20.918;2023-12-20T11:48:02;51.38;;;39.13;;
79664;SDS011;69132;44.014;20.918;2023-12-20T11:50:33;50.80;;;37.53;;
79664;SDS011;69132;44.014;20.918;2023-12-20T11:52:59;51.67;;;40.97;;
79664;SDS011;69132;44.014;20.918;2023-12-20T11:55:25;51.53;;;39.85;;
79664;SDS011;69132;44.014;20.918;2023-12-20T11:57:52;57.22;;;40.10;;
79664;SDS011;69132;44.014;20.918;2023-12-20T12:00:19;51.95;;;39.47;;
79664;SDS011;69132;44.014;20.918;2023-12-20T12:02:56;54.38;;;40.40;;
79664;SDS011;69132;44.014;20.918;2023-12-20T12:05:23;56.63;;;42.83;;
79664;SDS011;69132;44.014;20.918;2023-12-20T12:07:49;57.63;;;43.35;;
79664;SDS011;69132;44.014;20.918;2023-12-20T12:10:15;66.15;;;43.97;;
79664;SDS011;69132;44.014;20.918;2023-12-20T12:12:42;56.58;;;42.55;;
79664;SDS011;69132;44.014;20.918;2023-12-20T12:15:08;53.35;;;43.28;;
79664;SDS011;69132;44.014;20.918;2023-12-20T12:17:35;56.60;;;43.13;;
79664;SDS011;69132;44.014;20.918;2023-12-20T12:20:05;61.95;;;44.05;;
79664;SDS011;69132;44.014;20.918;2023-12-20T12:22:31;69.80;;;44.75;;
79664;SDS011;69132;44.014;20.918;2023-12-20T12:25:16;57.25;;;42.20;;
79664;SDS011;69132;44.014;20.918;2023-12-20T12:27:42;53.13;;;41.05;;
79664;SDS011;69132;44.014;20.918;2023-12-20T12:30:09;50.92;;;40.60;;
79664;SDS011;69132;44.014;20.918;2023-12-20T12:32:37;57.10;;;43.08;;
79664;SDS011;69132;44.014;20.918;2023-12-20T12:35:08;56.53;;;41.97;;
79664;SDS011;69132;44.014;20.918;2023-12-20T12:37:37;64.15;;;42.13;;
79664;SDS011;69132;44.014;20.918;2023-12-20T12:40:09;65.25;;;43.38;;
79664;SDS011;69132;44.014;20.918;2023-12-20T12:42:39;60.97;;;43.72;;
79664;SDS011;69132;44.014;20.918;2023-12-20T12:45:08;53.30;;;41.00;;
79664;SDS011;69132;44.014;20.918;2023-12-20T12:47:34;65.03;;;44.00;;
79664;SDS011;69132;44.014;20.918;2023-12-20T12:50:01;57.53;;;41.20;;
79664;SDS011;69132;44.014;20.918;2023-12-20T12:52:28;59.50;;;44.10;;
79664;SDS011;69132;44.014;20.918;2023-12-20T12:54:54;59.75;;;43.92;;
79664;SDS011;69132;44.014;20.918;2023-12-20T12:57:20;57.28;;;42.40;;
79664;SDS011;69132;44.014;20.918;2023-12-20T12:59:47;61.47;;;43.90;;
79664;SDS011;69132;44.014;20.918;2023-12-20T13:02:13;74.20;;;49.22;;
79664;SDS011;69132;44.014;20.918;2023-12-20T13:04:40;67.03;;;47.13;;
79664;SDS011;69132;44.014;20.918;2023-12-20T13:07:08;63.60;;;45.47;;
79664;SDS011;69132;44.014;20.918;2023-12-20T13:09:37;64.88;;;45.78;;
79664;SDS011;69132;44.014;20.918;2023-12-20T13:12:03;66.97;;;46.90;;
79664;SDS011;69132;44.014;20.918;2023-12-20T13:14:32;69.38;;;46.53;;
79664;SDS011;69132;44.014;20.918;2023-12-20T13:17:00;74.38;;;51.40;;
79664;SDS011;69132;44.014;20.918;2023-12-20T13:19:26;67.88;;;48.00;;
79664;SDS011;69132;44.014;20.918;2023-12-20T13:21:53;72.97;;;49.65;;
79664;SDS011;69132;44.014;20.918;2023-12-20T13:24:23;75.97;;;52.05;;
79664;SDS011;69132;44.014;20.918;2023-12-20T13:26:49;77.47;;;54.40;;
79664;SDS011;69132;44.014;20.918;2023-12-20T13:29:16;76.65;;;52.65;;
79664;SDS011;69132;44.014;20.918;2023-12-20T13:31:42;87.25;;;58.28;;
79664;SDS011;69132;44.014;20.918;2023-12-20T13:34:09;65.45;;;46.00;;
79664;SDS011;69132;44.014;20.918;2023-12-20T13:36:35;65.25;;;46.03;;
79664;SDS011;69132;44.014;20.918;2023-12-20T13:39:03;66.65;;;52.70;;
79664;SDS011;69132;44.014;20.918;2023-12-20T13:41:30;92.95;;;51.63;;
79664;SDS011;69132;44.014;20.918;2023-12-20T13:43:56;76.55;;;53.30;;
79664;SDS011;69132;44.014;20.918;2023-12-20T13:46:22;78.82;;;53.35;;
79664;SDS011;69132;44.014;20.918;2023-12-20T13:48:50;77.07;;;53.10;;
79664;SDS011;69132;44.014;20.918;2023-12-20T13:51:17;79.43;;;51.38;;
79664;SDS011;69132;44.014;20.918;2023-12-20T13:53:43;74.45;;;52.05;;
79664;SDS011;69132;44.014;20.918;2023-12-20T13:56:10;73.20;;;49.30;;
79664;SDS011;69132;44.014;20.918;2023-12-20T13:58:36;67.63;;;48.00;;
79664;SDS011;69132;44.014;20.918;2023-12-20T14:01:04;76.65;;;50.90;;
79664;SDS011;69132;44.014;20.918;2023-12-20T14:03:32;71.90;;;51.72;;
79664;SDS011;69132;44.014;20.918;2023-12-20T14:05:58;72.15;;;49.40;;
79664;SDS011;69132;44.014;20.918;2023-12-20T14:08:25;77.60;;;53.17;;
79664;SDS011;69132;44.014;20.918;2023-12-20T14:10:53;68.30;;;51.67;;
79664;SDS011;69132;44.014;20.918;2023-12-20T14:13:19;70.97;;;53.88;;
79664;SDS011;69132;44.014;20.918;2023-12-20T14:15:47;72.97;;;48.90;;
79664;SDS011;69132;44.014;20.918;2023-12-20T14:18:14;81.05;;;55.88;;
79664;SDS011;69132;44.014;20.918;2023-12-20T14:20:43;81.22;;;57.97;;
79664;SDS011;69132;44.014;20.918;2023-12-20T14:23:16;80.38;;;57.00;;
79664;SDS011;69132;44.014;20.918;2023-12-20T14:25:43;84.57;;;59.75;;
79664;SDS011;69132;44.014;20.918;2023-12-20T14:30:55;89.13;;;60.25;;
79664;SDS011;69132;44.014;20.918;2023-12-20T14:33:21;91.25;;;61.40;;
79664;SDS011;69132;44.014;20.918;2023-12-20T14:35:47;91.78;;;64.55;;
79664;SDS011;69132;44.014;20.918;2023-12-20T14:38:14;98.82;;;68.32;;
79664;SDS011;69132;44.014;20.918;2023-12-20T14:40:40;99.00;;;64.38;;
79664;SDS011;69132;44.014;20.918;2023-12-20T14:43:08;106.28;;;69.30;;
79664;SDS011;69132;44.014;20.918;2023-12-20T14:45:34;117.13;;;70.53;;
79664;SDS011;69132;44.014;20.918;2023-12-20T14:48:01;110.78;;;70.50;;
79664;SDS011;69132;44.014;20.918;2023-12-20T14:50:27;111.22;;;70.53;;
79664;SDS011;69132;44.014;20.918;2023-12-20T14:52:54;116.10;;;74.97;;
79664;SDS011;69132;44.014;20.918;2023-12-20T14:55:21;110.05;;;71.63;;
79664;SDS011;69132;44.014;20.918;2023-12-20T14:57:48;119.47;;;77.90;;
79664;SDS011;69132;44.014;20.918;2023-12-20T15:00:15;125.10;;;80.28;;
79664;SDS011;69132;44.014;20.918;2023-12-20T15:02:42;114.93;;;75.80;;
79664;SDS011;69132;44.014;20.918;2023-12-20T15:05:08;127.25;;;83.65;;
79664;SDS011;69132;44.014;20.918;2023-12-20T15:07:35;129.48;;;81.10;;
79664;SDS011;69132;44.014;20.918;2023-12-20T15:10:01;122.72;;;79.65;;
79664;SDS011;69132;44.014;20.918;2023-12-20T15:12:28;118.75;;;77.35;;
79664;SDS011;69132;44.014;20.918;2023-12-20T15:14:54;112.10;;;74.07;;
79664;SDS011;69132;44.014;20.918;2023-12-20T15:17:21;123.88;;;76.75;;
79664;SDS011;69132;44.014;20.918;2023-12-20T15:19:47;128.10;;;78.15;;
79664;SDS011;69132;44.014;20.918;2023-12-20T15:22:14;134.40;;;76.70;;
79664;SDS011;69132;44.014;20.918;2023-12-20T15:24:41;130.23;;;78.40;;
79664;SDS011;69132;44.014;20.918;2023-12-20T15:27:11;136.57;;;78.32;;
79664;SDS011;69132;44.014;20.918;2023-12-20T15:29:40;138.57;;;73.72;;
79664;SDS011;69132;44.014;20.918;2023-12-20T15:32:08;127.03;;;77.80;;
79664;SDS011;69132;44.014;20.918;2023-12-20T15:34:35;126.18;;;77.97;;
79664;SDS011;69132;44.014;20.918;2023-12-20T15:37:01;131.00;;;74.82;;
79664;SDS011;69132;44.014;20.918;2023-12-20T15:39:28;142.65;;;78.68;;
79664;SDS011;69132;44.014;20.918;2023-12-20T15:41:54;136.75;;;76.82;;
79664;SDS011;69132;44.014;20.918;2023-12-20T15:44:20;127.63;;;78.25;;
79664;SDS011;69132;44.014;20.918;2023-12-20T15:46:48;163.18;;;84.60;;
79664;SDS011;69132;44.014;20.918;2023-12-20T15:49:14;156.05;;;85.68;;
79664;SDS011;69132;44.014;20.918;2023-12-20T15:51:42;155.00;;;90.10;;
79664;SDS011;69132;44.014;20.918;2023-12-20T15:54:09;164.02;;;92.85;;
79664;SDS011;69132;44.014;20.918;2023-12-20T15:56:35;275.95;;;179.93;;
79664;SDS011;69132;44.014;20.918;2023-12-20T15:59:02;325.98;;;215.07;;
79664;SDS011;69132;44.014;20.918;2023-12-20T16:01:31;282.60;;;182.55;;
79664;SDS011;69132;44.014;20.918;2023-12-20T16:03:57;293.13;;;186.27;;
79664;SDS011;69132;44.014;20.918;2023-12-20T16:06:24;242.00;;;149.38;;
79664;SDS011;69132;44.014;20.918;2023-12-20T16:08:51;216.05;;;131.23;;
79664;SDS011;69132;44.014;20.918;2023-12-20T16:11:17;201.88;;;124.20;;
79664;SDS011;69132;44.014;20.918;2023-12-20T16:13:45;192.83;;;115.20;;
79664;SDS011;69132;44.014;20.918;2023-12-20T16:16:13;181.85;;;113.13;;
79664;SDS011;69132;44.014;20.918;2023-12-20T16:18:39;166.57;;;104.32;;
79664;SDS011;69132;44.014;20.918;2023-12-20T16:21:05;134.95;;;84.03;;
79664;SDS011;69132;44.014;20.918;2023-12-20T16:23:32;126.10;;;78.28;;
79664;SDS011;69132;44.014;20.918;2023-12-20T16:25:58;126.80;;;81.22;;
79664;SDS011;69132;44.014;20.918;2023-12-20T16:28:24;124.40;;;79.07;;
79664;SDS011;69132;44.014;20.918;2023-12-20T16:30:50;105.47;;;62.70;;
79664;SDS011;69132;44.014;20.918;2023-12-20T16:33:20;81.47;;;53.10;;
79664;SDS011;69132;44.014;20.918;2023-12-20T16:35:46;87.53;;;53.20;;
79664;SDS011;69132;44.014;20.918;2023-12-20T16:38:14;76.07;;;47.25;;
79664;SDS011;69132;44.014;20.918;2023-12-20T16:40:40;71.75;;;44.15;;
79664;SDS011;69132;44.014;20.918;2023-12-20T16:43:08;71.68;;;46.00;;
79664;SDS011;69132;44.014;20.918;2023-12-20T16:45:34;65.35;;;42.13;;
79664;SDS011;69132;44.014;20.918;2023-12-20T16:48:01;71.82;;;44.92;;
79664;SDS011;69132;44.014;20.918;2023-12-20T16:50:27;68.63;;;44.13;;
79664;SDS011;69132;44.014;20.918;2023-12-20T16:52:53;67.20;;;43.53;;
79664;SDS011;69132;44.014;20.918;2023-12-20T16:55:21;64.30;;;43.03;;
79664;SDS011;69132;44.014;20.918;2023-12-20T16:57:47;69.30;;;42.33;;
79664;SDS011;69132;44.014;20.918;2023-12-20T17:00:14;63.30;;;42.58;;
79664;SDS011;69132;44.014;20.918;2023-12-20T17:02:42;66.10;;;40.73;;
79664;SDS011;69132;44.014;20.918;2023-12-20T17:05:09;65.97;;;43.15;;
79664;SDS011;69132;44.014;20.918;2023-12-20T17:07:35;68.93;;;44.85;;
79664;SDS011;69132;44.014;20.918;2023-12-20T17:10:03;71.05;;;44.97;;
79664;SDS011;69132;44.014;20.918;2023-12-20T17:12:30;65.97;;;41.23;;
79664;SDS011;69132;44.014;20.918;2023-12-20T17:14:56;76.80;;;48.42;;
79664;SDS011;69132;44.014;20.918;2023-12-20T17:17:24;69.93;;;42.93;;
79664;SDS011;69132;44.014;20.918;2023-12-20T17:19:52;70.40;;;45.10;;
79664;SDS011;69132;44.014;20.918;2023-12-20T17:22:18;78.63;;;46.05;;
79664;SDS011;69132;44.014;20.918;2023-12-20T17:24:44;79.25;;;46.83;;
79664;SDS011;69132;44.014;20.918;2023-12-20T17:27:14;66.18;;;43.65;;
79664;SDS011;69132;44.014;20.918;2023-12-20T17:29:43;71.40;;;47.25;;
79664;SDS011;69132;44.014;20.918;2023-12-20T17:32:09;72.50;;;47.95;;
79664;SDS011;69132;44.014;20.918;2023-12-20T17:34:35;78.82;;;48.97;;
79664;SDS011;69132;44.014;20.918;2023-12-20T17:37:01;74.65;;;45.80;;
79664;SDS011;69132;44.014;20.918;2023-12-20T17:39:28;71.03;;;46.15;;
79664;SDS011;69132;44.014;20.918;2023-12-20T17:41:56;71.60;;;46.40;;
79664;SDS011;69132;44.014;20.918;2023-12-20T17:44:22;74.13;;;48.58;;
79664;SDS011;69132;44.014;20.918;2023-12-20T17:46:49;71.63;;;47.60;;
79664;SDS011;69132;44.014;20.918;2023-12-20T17:49:18;73.20;;;47.85;;
79664;SDS011;69132;44.014;20.918;2023-12-20T17:51:45;85.82;;;50.45;;
79664;SDS011;69132;44.014;20.918;2023-12-20T17:54:12;77.18;;;45.72;;
79664;SDS011;69132;44.014;20.918;2023-12-20T17:56:39;77.50;;;46.95;;
79664;SDS011;69132;44.014;20.918;2023-12-20T17:59:05;72.05;;;46.45;;
79664;SDS011;69132;44.014;20.918;2023-12-20T18:01:31;72.40;;;47.45;;
79664;SDS011;69132;44.014;20.918;2023-12-20T18:03:57;75.65;;;49.67;;
79664;SDS011;69132;44.014;20.918;2023-12-20T18:06:24;75.95;;;49.20;;
79664;SDS011;69132;44.014;20.918;2023-12-20T18:08:50;72.45;;;50.58;;
79664;SDS011;69132;44.014;20.918;2023-12-20T18:11:16;75.57;;;50.92;;
79664;SDS011;69132;44.014;20.918;2023-12-20T18:13:42;83.05;;;51.15;;
79664;SDS011;69132;44.014;20.918;2023-12-20T18:16:08;85.25;;;53.15;;
79664;SDS011;69132;44.014;20.918;2023-12-20T18:18:36;133.30;;;81.85;;
79664;SDS011;69132;44.014;20.918;2023-12-20T18:21:02;176.85;;;101.25;;
79664;SDS011;69132;44.014;20.918;2023-12-20T18:23:29;167.73;;;101.32;;
79664;SDS011;69132;44.014;20.918;2023-12-20T18:25:55;167.95;;;102.80;;
79664;SDS011;69132;44.014;20.918;2023-12-20T18:28:22;172.80;;;102.15;;
79664;SDS011;69132;44.014;20.918;2023-12-20T18:30:49;209.32;;;121.15;;
79664;SDS011;69132;44.014;20.918;2023-12-20T18:33:15;217.00;;;124.03;;
79664;SDS011;69132;44.014;20.918;2023-12-20T18:35:41;194.15;;;114.13;;
79664;SDS011;69132;44.014;20.918;2023-12-20T18:38:09;182.95;;;106.57;;
79664;SDS011;69132;44.014;20.918;2023-12-20T18:40:36;194.43;;;113.78;;
79664;SDS011;69132;44.014;20.918;2023-12-20T18:43:02;195.85;;;116.10;;
79664;SDS011;69132;44.014;20.918;2023-12-20T18:45:29;186.73;;;106.95;;
79664;SDS011;69132;44.014;20.918;2023-12-20T18:47:56;166.73;;;100.80;;
79664;SDS011;69132;44.014;20.918;2023-12-20T18:50:23;175.10;;;104.53;;
79664;SDS011;69132;44.014;20.918;2023-12-20T18:52:49;178.20;;;103.75;;
79664;SDS011;69132;44.014;20.918;2023-12-20T18:55:15;175.02;;;100.75;;
79664;SDS011;69132;44.014;20.918;2023-12-20T18:57:41;167.75;;;101.35;;
79664;SDS011;69132;44.014;20.918;2023-12-20T19:00:10;168.70;;;100.05;;
79664;SDS011;69132;44.014;20.918;2023-12-20T19:02:36;174.27;;;99.80;;
79664;SDS011;69132;44.014;20.918;2023-12-20T19:05:03;174.75;;;101.50;;
79664;SDS011;69132;44.014;20.918;2023-12-20T19:07:30;163.75;;;101.82;;
79664;SDS011;69132;44.014;20.918;2023-12-20T19:09:56;179.20;;;104.20;;
79664;SDS011;69132;44.014;20.918;2023-12-20T19:12:22;165.68;;;98.03;;
79664;SDS011;69132;44.014;20.918;2023-12-20T19:14:48;168.52;;;98.47;;
79664;SDS011;69132;44.014;20.918;2023-12-20T19:17:16;160.25;;;97.18;;
79664;SDS011;69132;44.014;20.918;2023-12-20T19:19:42;160.82;;;94.07;;
79664;SDS011;69132;44.014;20.918;2023-12-20T19:22:09;162.75;;;93.68;;
79664;SDS011;69132;44.014;20.918;2023-12-20T19:24:35;161.65;;;92.72;;
79664;SDS011;69132;44.014;20.918;2023-12-20T19:27:01;157.38;;;93.47;;
79664;SDS011;69132;44.014;20.918;2023-12-20T19:29:27;147.23;;;88.25;;
79664;SDS011;69132;44.014;20.918;2023-12-20T19:31:53;145.57;;;87.95;;
79664;SDS011;69132;44.014;20.918;2023-12-20T19:34:21;147.68;;;87.90;;
79664;SDS011;69132;44.014;20.918;2023-12-20T19:36:47;156.02;;;88.88;;
79664;SDS011;69132;44.014;20.918;2023-12-20T19:39:13;158.80;;;90.65;;
79664;SDS011;69132;44.014;20.918;2023-12-20T19:41:39;150.30;;;91.85;;
79664;SDS011;69132;44.014;20.918;2023-12-20T19:44:05;154.60;;;90.95;;
79664;SDS011;69132;44.014;20.918;2023-12-20T19:46:33;155.77;;;90.30;;
79664;SDS011;69132;44.014;20.918;2023-12-20T19:48:59;145.13;;;84.82;;
79664;SDS011;69132;44.014;20.918;2023-12-20T19:51:25;148.77;;;84.57;;
79664;SDS011;69132;44.014;20.918;2023-12-20T19:53:53;151.93;;;87.00;;
79664;SDS011;69132;44.014;20.918;2023-12-20T19:56:19;150.93;;;90.07;;